createdAt,value
2022-09-14T00:01:49.180Z,69.50
2022-09-14T00:06:53.909Z,69.60
2022-09-14T00:11:57.695Z,69.70
2022-09-14T00:17:01.046Z,69.50
2022-09-14T00:22:06.723Z,69.50
2022-09-14T00:27:10.342Z,69.60
2022-09-14T00:32:13.898Z,69.70
2022-09-14T00:37:18.543Z,70.00
2022-09-14T00:42:21.868Z,70.30
2022-09-14T00:47:25.999Z,70.50
2022-09-14T00:52:33.912Z,71.10
2022-09-14T00:57:40.236Z,71.60
2022-09-14T01:02:43.618Z,72.60
2022-09-14T01:08:01.985Z,72.80
2022-09-14T01:13:18.973Z,73.60
2022-09-14T01:18:28.716Z,74.30
2022-09-14T01:23:41.383Z,73.40
2022-09-14T01:28:48.409Z,73.60
2022-09-14T01:33:59.611Z,73.90
2022-09-14T01:39:03.823Z,74.50
2022-09-14T01:44:12.315Z,73.80
2022-09-14T01:49:20.258Z,74.70
2022-09-14T01:54:29.985Z,75.30
2022-09-14T01:59:38.570Z,76.30
2022-09-14T02:04:48.394Z,76.10
2022-09-14T02:09:54.438Z,76.20
2022-09-14T02:14:59.625Z,76.40
2022-09-14T02:20:06.702Z,76.40
2022-09-14T02:25:10.152Z,76.60
2022-09-14T02:30:15.144Z,76.50
2022-09-14T02:35:23.920Z,76.40
2022-09-14T02:40:33.982Z,76.20
2022-09-14T02:45:45.393Z,76.10
2022-09-14T02:50:54.733Z,75.90
2022-09-14T02:56:01.953Z,75.60
2022-09-14T03:01:08.586Z,75.80
2022-09-14T03:06:12.016Z,75.80
2022-09-14T03:11:15.321Z,76.30
2022-09-14T03:16:21.026Z,76.60
2022-09-14T03:21:24.433Z,76.90
2022-09-14T03:26:29.141Z,77.10
2022-09-14T03:31:34.403Z,76.90
2022-09-14T03:36:37.814Z,76.60
2022-09-14T03:41:41.108Z,76.60
2022-09-14T03:46:46.089Z,76.60
2022-09-14T03:51:49.706Z,77.00
2022-09-14T03:56:54.038Z,78.00
2022-09-14T04:01:58.712Z,77.10
2022-09-14T04:07:01.988Z,77.40
2022-09-14T04:12:05.712Z,77.10
2022-09-14T04:17:10.816Z,77.40
2022-09-14T04:22:14.212Z,77.90
2022-09-14T04:27:17.577Z,78.40
2022-09-14T04:32:22.250Z,78.10
2022-09-14T04:37:25.602Z,78.00
2022-09-14T04:42:30.951Z,77.80
2022-09-14T04:47:35.589Z,77.80
2022-09-14T04:52:38.917Z,78.10
2022-09-14T04:57:42.241Z,77.90
2022-09-14T05:02:47.244Z,77.40
2022-09-14T05:07:50.662Z,77.00
2022-09-14T05:12:54.076Z,76.80
2022-09-14T05:17:58.972Z,77.00
2022-09-14T05:23:03.325Z,77.10
2022-09-14T05:28:06.993Z,76.80
2022-09-14T05:33:11.660Z,76.60
2022-09-14T05:38:17.135Z,76.70
2022-09-14T05:43:22.629Z,77.40
2022-09-14T05:48:27.330Z,77.60
2022-09-14T05:53:33.303Z,78.80
2022-09-14T05:58:37.407Z,79.30
2022-09-14T06:03:43.124Z,79.90
2022-09-14T06:08:50.884Z,79.90
2022-09-14T06:13:55.720Z,80.70
2022-09-14T06:19:01.634Z,80.40
2022-09-14T06:24:05.552Z,80.50
2022-09-14T06:29:11.761Z,80.50
2022-09-14T06:34:16.438Z,80.80
2022-09-14T06:39:19.738Z,80.70
2022-09-14T06:44:23.113Z,80.30
2022-09-14T06:49:27.989Z,80.50
2022-09-14T06:54:31.393Z,80.60
2022-09-14T06:59:36.344Z,80.30
2022-09-14T07:04:41.190Z,80.30
2022-09-14T07:09:44.520Z,80.10
2022-09-14T07:14:47.894Z,80.00
2022-09-14T07:19:52.712Z,79.80
2022-09-14T07:24:57.126Z,79.90
2022-09-14T07:30:00.548Z,79.60
2022-09-14T07:35:06.289Z,79.40
2022-09-14T07:40:11.293Z,79.60
2022-09-14T07:45:17.966Z,79.70
2022-09-14T07:50:22.577Z,80.60
2022-09-14T07:55:25.856Z,79.50
2022-09-14T08:00:29.357Z,79.30
2022-09-14T08:05:33.987Z,79.10
2022-09-14T08:10:37.590Z,78.60
2022-09-14T08:15:40.966Z,78.40
2022-09-14T08:20:46.775Z,78.50
2022-09-14T08:25:50.168Z,77.70
2022-09-14T08:30:53.841Z,77.60
2022-09-14T08:35:58.861Z,76.80
2022-09-14T08:41:19.299Z,76.00
2022-09-14T08:46:29.979Z,76.80
2022-09-14T08:51:34.599Z,76.20
2022-09-14T08:56:43.225Z,75.00
2022-09-14T09:01:55.403Z,75.30
2022-09-14T09:07:06.382Z,74.90
2022-09-14T09:12:15.972Z,74.50
2022-09-14T09:17:23.361Z,74.60
2022-09-14T09:22:32.941Z,74.80
2022-09-14T09:27:36.201Z,75.00
2022-09-14T09:32:41.777Z,74.50
2022-09-14T09:37:46.988Z,73.70
2022-09-14T09:43:07.350Z,73.50
2022-09-14T09:48:11.759Z,74.20
2022-09-14T09:53:18.526Z,72.70
2022-09-14T09:58:24.205Z,72.80
2022-09-14T10:03:33.716Z,73.80
2022-09-14T10:08:44.140Z,73.60
2022-09-14T10:13:48.567Z,71.90
2022-09-14T10:18:53.910Z,73.00
2022-09-14T10:24:08.157Z,72.00
2022-09-14T10:29:28.817Z,70.00
2022-09-14T10:34:32.989Z,70.20
2022-09-14T10:39:42.037Z,70.00
2022-09-14T10:44:54.386Z,69.00
2022-09-14T10:50:10.790Z,69.50
2022-09-14T10:55:32.323Z,70.00
2022-09-14T11:00:43.925Z,70.00
2022-09-14T11:05:58.351Z,68.50
2022-09-14T11:11:29.448Z,68.60
2022-09-14T11:16:51.052Z,68.10
2022-09-14T11:22:03.501Z,69.20
2022-09-14T11:27:15.955Z,68.50
2022-09-14T11:32:24.818Z,68.90
2022-09-14T11:37:36.423Z,68.40
2022-09-14T11:42:52.396Z,68.20
2022-09-14T11:48:09.480Z,68.20
2022-09-14T11:53:25.919Z,68.20
2022-09-14T11:58:31.287Z,68.60
2022-09-14T12:03:54.269Z,68.90
2022-09-14T12:09:53.311Z,68.90
2022-09-14T12:15:12.912Z,68.40
2022-09-14T12:20:39.029Z,68.10
2022-09-14T12:26:10.445Z,68.10
2022-09-14T12:31:59.341Z,68.00
2022-09-14T12:37:28.159Z,68.00
2022-09-14T12:42:32.472Z,67.40
2022-09-14T12:47:58.699Z,67.80
2022-09-14T12:53:19.384Z,68.10
2022-09-14T12:58:53.842Z,67.80
2022-09-14T13:03:59.251Z,67.90
2022-09-14T13:09:07.401Z,67.70
2022-09-14T13:14:18.851Z,67.60
2022-09-14T13:19:28.986Z,67.70
2022-09-14T13:24:38.752Z,67.70
2022-09-14T13:29:42.313Z,67.80
2022-09-14T13:34:47.262Z,67.70
2022-09-14T13:39:53.200Z,67.80
2022-09-14T13:44:56.920Z,68.20
2022-09-14T13:50:01.869Z,68.20
2022-09-14T13:55:25.548Z,67.60
2022-09-14T14:00:28.968Z,67.60
2022-09-14T14:05:41.105Z,67.50
2022-09-14T14:10:49.109Z,67.40
2022-09-14T14:15:53.727Z,66.90
2022-09-14T14:21:06.493Z,66.80
2022-09-14T14:26:11.588Z,67.10
2022-09-14T14:31:19.816Z,66.80
2022-09-14T14:36:24.709Z,66.60
2022-09-14T14:41:28.050Z,66.90
2022-09-14T14:46:31.516Z,66.50
2022-09-14T14:51:36.216Z,66.20
2022-09-14T14:56:40.116Z,66.20
2022-09-14T15:01:52.326Z,66.40
2022-09-14T15:06:57.109Z,66.70
2022-09-14T15:12:00.769Z,66.80
2022-09-14T15:17:04.391Z,66.70
2022-09-14T15:22:10.892Z,66.60
2022-09-14T15:27:14.867Z,66.70
2022-09-14T15:32:18.268Z,67.20
2022-09-14T15:37:23.020Z,67.20
2022-09-14T15:42:27.192Z,67.20
2022-09-14T15:47:35.514Z,67.50
2022-09-14T15:52:42.423Z,68.00
2022-09-14T15:57:45.814Z,68.60
2022-09-14T16:02:50.561Z,69.00
2022-09-14T16:07:56.499Z,69.60
2022-09-14T16:12:59.844Z,70.10
2022-09-14T16:18:03.772Z,70.60
2022-09-14T16:23:09.165Z,70.60
2022-09-14T16:28:13.088Z,70.80
2022-09-14T16:33:16.711Z,71.10
2022-09-14T16:38:21.396Z,71.50
2022-09-14T16:43:24.711Z,71.80
2022-09-14T16:48:29.249Z,72.00
2022-09-14T16:53:36.275Z,72.20
2022-09-14T16:58:40.323Z,73.60
2022-09-14T17:03:44.853Z,72.40
2022-09-14T17:08:50.262Z,72.40
2022-09-14T17:13:53.706Z,72.70
2022-09-14T17:18:59.843Z,72.90
2022-09-14T17:24:05.882Z,72.80
2022-09-14T17:29:09.325Z,73.30
2022-09-14T17:34:16.161Z,73.60
2022-09-14T17:39:21.166Z,74.00
2022-09-14T17:44:25.864Z,74.40
2022-09-14T17:49:29.249Z,74.40
2022-09-14T17:54:33.983Z,74.30
2022-09-14T17:59:37.430Z,74.40
2022-09-14T18:04:44.274Z,74.90
2022-09-14T18:09:52.714Z,75.10
2022-09-14T18:14:57.030Z,75.40
2022-09-14T18:20:00.383Z,75.50
2022-09-14T18:25:06.043Z,75.90
2022-09-14T18:30:10.899Z,76.30
2022-09-14T18:35:16.732Z,76.40
2022-09-14T18:40:21.720Z,76.70
2022-09-14T18:45:25.112Z,76.70
2022-09-14T18:50:28.550Z,76.70
2022-09-14T18:55:35.501Z,76.90
2022-09-14T19:00:45.085Z,77.00
2022-09-14T19:05:48.537Z,78.30
2022-09-14T19:10:53.408Z,77.40
2022-09-14T19:15:57.091Z,77.20
2022-09-14T19:21:07.014Z,77.30
2022-09-14T19:26:14.739Z,77.40
2022-09-14T19:31:20.401Z,77.60
2022-09-14T19:36:24.491Z,77.90
2022-09-14T19:41:30.440Z,78.20
2022-09-14T19:46:34.307Z,78.60
2022-09-14T19:51:37.862Z,78.70
2022-09-14T19:56:43.807Z,79.00
2022-09-14T20:01:47.969Z,78.90
2022-09-14T20:06:51.935Z,78.70
2022-09-14T20:11:56.668Z,78.70
2022-09-14T20:17:01.068Z,78.90
2022-09-14T20:22:05.078Z,79.20
2022-09-14T20:27:10.139Z,79.30
2022-09-14T20:32:18.395Z,79.30
2022-09-14T20:37:23.815Z,79.40
2022-09-14T20:42:29.906Z,79.50
2022-09-14T20:47:33.521Z,79.60
2022-09-14T20:52:37.193Z,79.70
2022-09-14T20:57:42.420Z,79.90
2022-09-14T21:02:46.134Z,80.00
2022-09-14T21:07:56.146Z,80.20
2022-09-14T21:13:01.129Z,80.30
2022-09-14T21:18:05.372Z,80.50
2022-09-14T21:23:09.127Z,80.50
2022-09-14T21:28:13.810Z,80.60
2022-09-14T21:33:17.691Z,80.70
2022-09-14T21:38:21.380Z,80.90
2022-09-14T21:43:26.676Z,81.00
2022-09-14T21:48:30.329Z,81.00
2022-09-14T21:53:34.278Z,81.20
2022-09-14T21:58:39.001Z,81.20
2022-09-14T22:03:42.237Z,81.20
2022-09-14T22:08:46.473Z,81.50
2022-09-14T22:13:55.389Z,81.40
2022-09-14T22:19:00.381Z,81.50
2022-09-14T22:24:09.750Z,81.60
2022-09-14T22:29:15.338Z,81.70
2022-09-14T22:34:18.698Z,81.70
2022-09-14T22:39:22.429Z,81.70
2022-09-14T22:44:27.441Z,81.60
2022-09-14T22:49:30.854Z,81.70
2022-09-14T22:54:34.138Z,81.80
2022-09-14T22:59:38.959Z,82.00
2022-09-14T23:04:42.402Z,81.90
2022-09-14T23:09:45.678Z,82.10
2022-09-14T23:14:50.464Z,82.90
2022-09-14T23:19:53.784Z,82.30
2022-09-14T23:24:57.329Z,82.30
2022-09-14T23:30:01.983Z,82.60
2022-09-14T23:35:07.273Z,83.00
2022-09-14T23:40:11.096Z,83.00
2022-09-14T23:45:16.351Z,83.80
2022-09-14T23:50:19.715Z,84.10
2022-09-14T23:55:22.993Z,84.00
